CYMX

Montreal International (Mirabel) Airport

Montréal, Quebec, Canada
METAR CYMX 251443Z 07006KT 020V090 5SM -RA BR SCT005 OVC038 09/09 A3030 RMK SF4SC4 SLP265
Observed Flight Rules
Sep-25 @ 14:43 UTC (23 minutes ago) Marginal Visual Flight Rules
Wind Visibility Clouds Conditions
70° at 6 knots 5 miles
  • Scattered at 500' AGL
  • Overcast at 3,800' AGL
  • Light Rain
  • Mist
Temperatures Readings
Current 9°C / 48°F
Dewpoint 9°C / 48°F
Humidity 100%
Altimeter 30.3" Hg
Pressure 1026.5 hPa
Elevation 82
METAR CYMX 251443Z 07006KT 020V090 5SM -RA BR SCT005 OVC038 09/09 A3030 RMK SF4SC4 SLP265
Observed Flight Rules
Sep-25 @ 14:43 UTC
(23 minutes ago)
MVFR
Wind Visibility
70° at 6 knots 5 miles
Clouds
  • Scattered at 500' AGL
  • Overcast at 3,800' AGL
Conditions
  • Light Rain
  • Mist
Temperature Dewpoint
9°C / 48°F 9°C / 48°F
Humidity Altimeter Pressure
100% 30.3" Hg 1026.5 hPa